Time;durP1;ratioP1;P1;durP2;ratioP2;P2;SDS_P1;SDS_P2;PMS_P1;PMS_P2;Temp;Humidity;BMP_temperature;BMP_pressure;BME280_temperature;BME280_humidity;BME280_pressure;Samples;Min_cycle;Max_cycle;Signal;HPM_P1;HPM_P2
2021/07/10 00:00:27;;;;;;;0.30;0.30;;;23.80;59.80;;;;;;6240001;28;22844;-68
2021/07/10 00:03:27;;;;;;;0.35;0.30;;;23.80;59.90;;;;;;6240230;28;20036;-68
2021/07/10 00:06:28;;;;;;;0.40;0.30;;;23.80;59.80;;;;;;6229715;28;20163;-68
2021/07/10 00:09:28;;;;;;;0.65;0.30;;;23.80;59.80;;;;;;6230613;28;20030;-68
2021/07/10 00:12:29;;;;;;;0.30;0.30;;;23.80;59.80;;;;;;6229870;28;20284;-68
2021/07/10 00:15:29;;;;;;;0.30;0.30;;;23.80;59.90;;;;;;6215795;28;20034;-68
2021/07/10 00:18:30;;;;;;;0.30;0.20;;;23.80;59.90;;;;;;6242796;28;20021;-67
2021/07/10 00:21:31;;;;;;;0.30;0.30;;;23.80;59.80;;;;;;6244656;28;20425;-68
2021/07/10 00:24:31;;;;;;;0.35;0.30;;;23.80;59.80;;;;;;6244851;28;20068;-67
2021/07/10 00:27:33;;;;;;;0.30;0.30;;;23.80;59.80;;;;;;6242598;28;20064;-67
2021/07/10 00:30:34;;;;;;;0.43;0.32;;;23.80;59.80;;;;;;6244816;28;20035;-68
2021/07/10 00:33:34;;;;;;;0.20;0.20;;;23.80;59.80;;;;;;6244072;28;20107;-67
2021/07/10 00:36:35;;;;;;;0.30;0.30;;;23.80;59.80;;;;;;6244843;28;20025;-68
2021/07/10 00:39:36;;;;;;;0.30;0.30;;;23.80;59.80;;;;;;6244493;28;20424;-68
2021/07/10 00:42:37;;;;;;;0.30;0.30;;;23.80;59.80;;;;;;6244013;28;20037;-67
2021/07/10 00:45:38;;;;;;;0.60;0.35;;;23.80;59.80;;;;;;6244103;28;20041;-68
2021/07/10 00:48:39;;;;;;;0.28;0.20;;;23.80;59.80;;;;;;6243821;28;20508;-68
2021/07/10 00:51:39;;;;;;;0.98;0.30;;;23.80;59.80;;;;;;6243991;28;20575;-68
2021/07/10 00:54:40;;;;;;;0.30;0.20;;;23.80;59.80;;;;;;6207746;28;20037;-68
2021/07/10 00:57:42;;;;;;;0.20;0.20;;;23.80;59.80;;;;;;6215180;28;20078;-67
2021/07/10 01:00:44;;;;;;;0.55;0.30;;;23.80;59.80;;;;;;6243973;28;20214;-68
2021/07/10 01:03:45;;;;;;;0.40;0.30;;;23.80;59.80;;;;;;6232950;28;20018;-69
2021/07/10 01:06:47;;;;;;;0.30;0.20;;;23.80;59.80;;;;;;6218955;28;20172;-68
2021/07/10 01:09:47;;;;;;;0.22;0.22;;;23.80;59.80;;;;;;6243631;28;20021;-68
2021/07/10 01:12:50;;;;;;;0.30;0.30;;;23.80;59.70;;;;;;6243275;28;20109;-68
2021/07/10 01:15:50;;;;;;;0.10;0.10;;;23.80;59.80;;;;;;6243618;28;20025;-68
2021/07/10 01:18:51;;;;;;;0.25;0.20;;;23.80;59.80;;;;;;6243268;28;20071;-68
2021/07/10 01:21:51;;;;;;;0.17;0.17;;;23.80;59.80;;;;;;6243212;28;20028;-68
2021/07/10 01:24:52;;;;;;;0.65;0.25;;;23.80;59.80;;;;;;6242857;28;20025;-68
2021/07/10 01:27:55;;;;;;;0.30;0.30;;;23.80;59.80;;;;;;6242537;28;20133;-68
2021/07/10 01:30:55;;;;;;;0.22;0.20;;;23.80;59.80;;;;;;6243178;28;20021;-67
2021/07/10 01:33:56;;;;;;;0.20;0.20;;;23.80;59.70;;;;;;6242709;28;20032;-67
2021/07/10 01:36:56;;;;;;;0.32;0.25;;;23.80;59.80;;;;;;6242205;28;20079;-68
2021/07/10 01:39:57;;;;;;;0.30;0.25;;;23.80;59.80;;;;;;6239870;28;20376;-68
2021/07/10 01:43:02;;;;;;;0.30;0.22;;;23.80;59.70;;;;;;6242620;28;20246;-68
2021/07/10 01:46:02;;;;;;;0.20;0.20;;;23.80;59.80;;;;;;6243527;28;20029;-68
2021/07/10 01:49:03;;;;;;;0.47;0.30;;;23.80;59.70;;;;;;6242217;28;20037;-68
2021/07/10 01:52:04;;;;;;;0.38;0.25;;;23.80;59.70;;;;;;6242593;28;20022;-67
2021/07/10 01:55:06;;;;;;;0.25;0.25;;;23.80;59.80;;;;;;6241493;28;20033;-68
2021/07/10 01:58:07;;;;;;;0.70;0.22;;;23.80;59.70;;;;;;6242844;28;20021;-68
2021/07/10 02:01:08;;;;;;;0.20;0.20;;;23.80;59.70;;;;;;6242623;28;20302;-68
2021/07/10 02:04:11;;;;;;;0.40;0.30;;;23.80;60.50;;;;;;6242640;28;20436;-68
2021/07/10 02:07:12;;;;;;;0.68;0.20;;;23.80;59.70;;;;;;6242236;28;20163;-68
2021/07/10 02:10:14;;;;;;;0.30;0.20;;;23.80;59.70;;;;;;6242411;28;20083;-68
2021/07/10 02:13:15;;;;;;;0.30;0.30;;;23.80;59.70;;;;;;6242161;28;20484;-68
2021/07/10 02:16:16;;;;;;;0.40;0.30;;;23.80;59.70;;;;;;6242228;28;20068;-67
2021/07/10 02:19:17;;;;;;;0.20;0.20;;;23.80;59.70;;;;;;6239832;28;20377;-68
2021/07/10 02:22:17;;;;;;;1.10;0.35;;;23.80;59.70;;;;;;6241124;28;20032;-68
2021/07/10 02:25:20;;;;;;;0.20;0.20;;;23.80;59.70;;;;;;6237799;28;20528;-68
2021/07/10 02:28:21;;;;;;;0.20;0.20;;;23.80;59.70;;;;;;6241414;28;20455;-67
2021/07/10 02:31:21;;;;;;;0.30;0.30;;;23.80;59.70;;;;;;6241660;28;20029;-67
2021/07/10 02:34:22;;;;;;;0.15;0.15;;;23.80;59.70;;;;;;6241411;28;20105;-68
2021/07/10 02:37:22;;;;;;;0.55;0.40;;;23.80;59.70;;;;;;6241694;28;20025;-67
2021/07/10 02:40:23;;;;;;;0.30;0.30;;;23.80;59.70;;;;;;6241236;28;20112;-67
2021/07/10 02:43:24;;;;;;;0.30;0.30;;;23.80;59.70;;;;;;6241468;28;20048;-68
2021/07/10 02:46:24;;;;;;;0.47;0.40;;;23.80;59.60;;;;;;6241703;28;20021;-67
2021/07/10 02:49:25;;;;;;;0.30;0.20;;;23.80;59.70;;;;;;6240629;28;20061;-68
2021/07/10 02:52:25;;;;;;;0.30;0.30;;;23.80;59.70;;;;;;6216843;28;20068;-68
2021/07/10 02:55:26;;;;;;;0.30;0.30;;;23.80;59.70;;;;;;6229067;28;20029;-68
2021/07/10 02:58:27;;;;;;;0.30;0.30;;;23.80;59.70;;;;;;6241159;28;20113;-68
2021/07/10 03:01:27;;;;;;;0.30;0.30;;;23.80;59.70;;;;;;6226961;28;20042;-68
2021/07/10 03:04:28;;;;;;;0.45;0.30;;;23.80;59.70;;;;;;6216497;28;20087;-68
2021/07/10 03:07:28;;;;;;;0.28;0.28;;;23.80;59.60;;;;;;6216304;28;20033;-68
2021/07/10 03:10:29;;;;;;;0.20;0.20;;;23.80;59.60;;;;;;6239722;28;20037;-68
2021/07/10 03:13:29;;;;;;;0.30;0.30;;;23.80;59.70;;;;;;6240669;28;20025;-68
2021/07/10 03:16:30;;;;;;;0.28;0.28;;;23.80;59.70;;;;;;6240453;28;20025;-68
2021/07/10 03:19:30;;;;;;;0.40;0.40;;;23.80;59.60;;;;;;6241084;28;20028;-68
2021/07/10 03:22:31;;;;;;;0.20;0.20;;;23.80;59.60;;;;;;6240544;28;20032;-68
2021/07/10 03:25:31;;;;;;;0.30;0.30;;;23.80;59.60;;;;;;6240677;28;20036;-67
2021/07/10 03:28:32;;;;;;;0.28;0.28;;;23.80;59.60;;;;;;6240200;28;20394;-68
2021/07/10 03:31:32;;;;;;;0.25;0.25;;;23.80;59.60;;;;;;6240703;28;20384;-68
2021/07/10 03:34:33;;;;;;;0.85;0.20;;;23.80;59.60;;;;;;6240568;28;20210;-68
2021/07/10 03:37:34;;;;;;;0.40;0.30;;;23.80;59.60;;;;;;6240533;28;20030;-68
2021/07/10 03:40:35;;;;;;;0.40;0.40;;;23.80;59.60;;;;;;6240206;28;20076;-68
2021/07/10 03:43:35;;;;;;;0.30;0.30;;;23.80;59.60;;;;;;6240201;28;20444;-68
2021/07/10 03:46:36;;;;;;;0.28;0.28;;;23.80;59.60;;;;;;6240213;28;20084;-68
2021/07/10 03:49:36;;;;;;;0.20;0.20;;;23.80;59.60;;;;;;6240404;28;20040;-68
2021/07/10 03:52:37;;;;;;;0.20;0.20;;;23.80;59.60;;;;;;6241405;28;20532;-68
2021/07/10 03:55:37;;;;;;;0.30;0.30;;;23.80;59.60;;;;;;6204265;28;20029;-68
2021/07/10 03:58:38;;;;;;;0.35;0.35;;;23.80;59.60;;;;;;6245287;28;20025;-68
2021/07/10 04:01:41;;;;;;;0.20;0.20;;;23.80;59.60;;;;;;6245280;28;20397;-68
2021/07/10 04:04:42;;;;;;;0.30;0.30;;;23.80;59.60;;;;;;6234267;28;20026;-68
2021/07/10 04:07:42;;;;;;;0.30;0.30;;;23.80;59.60;;;;;;6240265;28;20068;-68
2021/07/10 04:10:43;;;;;;;0.45;0.45;;;23.80;59.60;;;;;;6245347;28;20029;-68
2021/07/10 04:13:44;;;;;;;0.30;0.30;;;23.80;59.60;;;;;;6244929;28;20029;-68
2021/07/10 04:16:44;;;;;;;0.50;0.30;;;23.80;59.60;;;;;;6244635;28;20048;-67
2021/07/10 04:19:46;;;;;;;0.50;0.30;;;23.80;59.60;;;;;;6244921;28;20484;-68
2021/07/10 04:22:47;;;;;;;0.43;0.30;;;23.80;59.60;;;;;;6244453;28;20022;-68
2021/07/10 04:25:47;;;;;;;0.30;0.30;;;23.80;59.60;;;;;;6244588;28;20029;-68
2021/07/10 04:28:48;;;;;;;0.30;0.30;;;23.80;59.60;;;;;;6244506;28;20543;-68
2021/07/10 04:31:49;;;;;;;0.47;0.30;;;23.80;59.60;;;;;;6244373;28;20120;-68
2021/07/10 04:34:49;;;;;;;0.40;0.40;;;23.80;59.60;;;;;;6244451;28;20029;-68
2021/07/10 04:37:50;;;;;;;0.20;0.20;;;23.80;59.60;;;;;;6244151;28;20036;-68
2021/07/10 04:40:50;;;;;;;1.23;0.70;;;23.80;59.60;;;;;;6244621;28;20022;-68
2021/07/10 04:43:51;;;;;;;0.30;0.30;;;23.80;59.60;;;;;;6243996;28;20036;-68
2021/07/10 04:46:52;;;;;;;0.40;0.40;;;23.80;59.60;;;;;;6243977;28;20025;-68
2021/07/10 04:49:52;;;;;;;0.45;0.30;;;23.80;59.60;;;;;;6244157;28;20435;-67
2021/07/10 04:52:53;;;;;;;1.02;0.30;;;23.80;59.60;;;;;;6237045;28;20038;-68
2021/07/10 04:55:53;;;;;;;0.30;0.30;;;23.80;59.60;;;;;;6194938;28;20398;-68
2021/07/10 04:58:54;;;;;;;1.02;0.45;;;23.80;59.60;;;;;;6239131;28;20030;-68
2021/07/10 05:01:54;;;;;;;0.95;0.50;;;23.80;59.60;;;;;;6237287;28;20055;-68
2021/07/10 05:04:55;;;;;;;0.40;0.40;;;23.80;59.60;;;;;;6243758;28;20099;-68
2021/07/10 05:07:55;;;;;;;0.73;0.30;;;23.80;59.60;;;;;;6243160;28;20665;-68
2021/07/10 05:10:56;;;;;;;0.43;0.40;;;23.80;59.60;;;;;;6243351;28;20037;-68
2021/07/10 05:13:56;;;;;;;0.40;0.40;;;23.80;59.60;;;;;;6243253;28;20029;-68
2021/07/10 05:16:57;;;;;;;0.32;0.32;;;23.80;59.60;;;;;;6243764;28;20555;-68
2021/07/10 05:19:57;;;;;;;0.25;0.25;;;23.80;60.40;;;;;;6243550;28;20060;-67
2021/07/10 05:22:58;;;;;;;0.30;0.30;;;23.80;59.60;;;;;;6243243;28;20034;-68
2021/07/10 05:25:58;;;;;;;0.32;0.30;;;23.80;59.60;;;;;;6243274;28;20033;-68
2021/07/10 05:28:59;;;;;;;0.30;0.30;;;23.80;59.60;;;;;;6230519;28;20061;-68
2021/07/10 05:32:00;;;;;;;0.38;0.38;;;23.80;59.60;;;;;;6218670;28;20038;-68
2021/07/10 05:35:00;;;;;;;0.50;0.40;;;23.80;59.60;;;;;;6240930;28;20306;-68
2021/07/10 05:38:01;;;;;;;0.30;0.30;;;23.80;59.70;;;;;;6242745;28;20096;-68
2021/07/10 05:41:02;;;;;;;0.63;0.40;;;23.80;59.60;;;;;;6243059;28;20033;-67
2021/07/10 05:44:02;;;;;;;0.40;0.32;;;23.80;59.60;;;;;;6242473;28;20037;-68
2021/07/10 05:47:04;;;;;;;0.40;0.40;;;23.80;59.60;;;;;;6242599;28;20044;-68
2021/07/10 05:50:05;;;;;;;0.50;0.50;;;23.80;59.60;;;;;;6242601;28;20030;-68
2021/07/10 05:53:07;;;;;;;1.15;0.50;;;23.80;60.40;;;;;;6239973;28;20026;-67
2021/07/10 05:56:08;;;;;;;0.50;0.40;;;23.80;59.60;;;;;;6242674;28;20298;-68
2021/07/10 05:59:08;;;;;;;0.45;0.40;;;23.80;59.60;;;;;;6242574;28;20357;-67
2021/07/10 06:02:09;;;;;;;0.47;0.40;;;23.80;59.60;;;;;;6242429;28;20072;-68
2021/07/10 06:05:10;;;;;;;0.43;0.43;;;23.80;59.60;;;;;;6242183;28;20133;-67
2021/07/10 06:08:11;;;;;;;0.80;0.45;;;23.80;59.60;;;;;;6242391;28;20041;-67
2021/07/10 06:11:11;;;;;;;0.40;0.40;;;23.80;59.60;;;;;;6242268;28;20029;-68
2021/07/10 06:14:12;;;;;;;0.63;0.50;;;23.80;59.60;;;;;;6240937;28;20048;-68
2021/07/10 06:17:12;;;;;;;0.60;0.40;;;23.80;59.60;;;;;;6242014;28;20030;-68
2021/07/10 06:20:16;;;;;;;0.40;0.40;;;23.80;59.60;;;;;;6241823;28;20129;-68
2021/07/10 06:23:18;;;;;;;0.40;0.40;;;23.80;59.60;;;;;;6241778;28;20029;-68
2021/07/10 06:26:18;;;;;;;0.40;0.40;;;23.80;59.60;;;;;;6241839;28;20407;-68
2021/07/10 06:29:19;;;;;;;0.43;0.40;;;23.80;59.60;;;;;;6241332;28;20092;-68
2021/07/10 06:32:20;;;;;;;0.63;0.40;;;23.80;59.60;;;;;;6241689;28;20073;-68
2021/07/10 06:35:20;;;;;;;0.88;0.35;;;23.80;59.60;;;;;;6240032;28;20013;-68
2021/07/10 06:38:21;;;;;;;0.40;0.40;;;23.80;59.60;;;;;;6217046;28;20033;-68
2021/07/10 06:41:22;;;;;;;0.60;0.50;;;23.80;59.60;;;;;;6241080;28;20443;-67
2021/07/10 06:44:22;;;;;;;0.28;0.28;;;23.80;59.60;;;;;;6238686;28;20033;-68
2021/07/10 06:47:23;;;;;;;2.50;0.45;;;23.80;59.50;;;;;;6240958;28;20104;-68
2021/07/10 06:50:23;;;;;;;0.40;0.40;;;23.80;59.60;;;;;;6240494;28;20384;-68
2021/07/10 06:53:24;;;;;;;0.55;0.50;;;23.80;59.60;;;;;;6225583;28;20054;-67
2021/07/10 06:56:25;;;;;;;0.40;0.40;;;23.80;59.60;;;;;;6237202;28;20029;-68
2021/07/10 06:59:25;;;;;;;0.40;0.40;;;23.80;59.50;;;;;;6222448;28;20055;-67
2021/07/10 07:02:26;;;;;;;0.40;0.40;;;23.80;59.60;;;;;;6240735;28;20105;-68
2021/07/10 07:05:26;;;;;;;0.50;0.50;;;23.80;59.60;;;;;;6223864;28;20041;-68
2021/07/10 07:08:27;;;;;;;0.38;0.38;;;23.80;59.50;;;;;;6235154;28;20480;-68
2021/07/10 07:11:27;;;;;;;0.73;0.50;;;23.80;59.60;;;;;;6240888;28;20404;-67
2021/07/10 07:14:28;;;;;;;0.70;0.57;;;23.80;59.60;;;;;;6240733;28;20100;-68
2021/07/10 07:17:28;;;;;;;0.68;0.57;;;23.80;59.50;;;;;;6240453;28;20484;-67
2021/07/10 07:20:29;;;;;;;0.35;0.35;;;23.80;59.60;;;;;;6240709;28;20179;-68
2021/07/10 07:23:30;;;;;;;1.15;0.63;;;23.80;59.50;;;;;;6231306;28;20084;-68
2021/07/10 07:26:30;;;;;;;0.52;0.52;;;23.80;59.50;;;;;;6230555;28;20032;-67
2021/07/10 07:29:31;;;;;;;1.58;0.50;;;23.80;59.50;;;;;;6240383;28;20061;-68
2021/07/10 07:32:32;;;;;;;0.40;0.40;;;23.80;59.50;;;;;;6240120;28;20129;-68
2021/07/10 07:35:32;;;;;;;0.68;0.57;;;23.80;59.50;;;;;;6240377;28;20104;-67
2021/07/10 07:38:33;;;;;;;0.60;0.60;;;23.80;59.50;;;;;;6240632;28;20108;-67
2021/07/10 07:41:34;;;;;;;0.30;0.30;;;23.80;59.50;;;;;;6240156;28;20223;-68
2021/07/10 07:44:35;;;;;;;0.52;0.50;;;23.80;59.50;;;;;;6240228;28;20072;-68
2021/07/10 07:47:36;;;;;;;0.60;0.60;;;23.80;59.50;;;;;;6239906;28;20048;-68
2021/07/10 07:50:37;;;;;;;0.70;0.50;;;23.80;59.50;;;;;;6240136;28;20499;-68
2021/07/10 07:53:37;;;;;;;0.50;0.50;;;23.80;59.50;;;;;;6221309;28;20022;-68
2021/07/10 07:56:38;;;;;;;0.43;0.43;;;23.80;59.50;;;;;;6213876;28;20053;-68
2021/07/10 07:59:38;;;;;;;0.88;0.52;;;23.80;59.50;;;;;;6240133;28;20037;-68
2021/07/10 08:02:40;;;;;;;0.70;0.63;;;23.80;59.50;;;;;;6240435;28;20557;-67
2021/07/10 08:05:40;;;;;;;1.88;0.70;;;23.80;59.50;;;;;;6239764;28;20356;-68
2021/07/10 08:08:41;;;;;;;0.40;0.40;;;23.80;59.50;;;;;;6240029;28;20114;-67
2021/07/10 08:11:42;;;;;;;0.63;0.60;;;23.80;59.50;;;;;;6240145;28;20038;-68
2021/07/10 08:14:42;;;;;;;2.28;0.68;;;23.80;59.50;;;;;;6239922;28;20061;-68
2021/07/10 08:17:44;;;;;;;0.50;0.40;;;23.80;59.50;;;;;;6239937;28;20144;-67
2021/07/10 08:20:44;;;;;;;0.65;0.57;;;23.80;59.50;;;;;;6239647;28;20033;-68
2021/07/10 08:23:45;;;;;;;0.57;0.50;;;23.80;59.50;;;;;;6239903;28;20053;-69
2021/07/10 08:26:45;;;;;;;1.10;0.70;;;23.80;59.50;;;;;;6239538;28;20279;-68
2021/07/10 08:29:47;;;;;;;0.70;0.60;;;23.80;59.50;;;;;;6240059;28;20117;-67
2021/07/10 08:32:48;;;;;;;0.95;0.73;;;23.80;59.50;;;;;;6239511;28;20387;-68
2021/07/10 08:35:49;;;;;;;0.82;0.57;;;23.80;59.50;;;;;;6240141;28;20034;-68
2021/07/10 08:38:49;;;;;;;1.10;0.60;;;23.80;59.50;;;;;;6243594;28;20088;-68
2021/07/10 08:41:50;;;;;;;0.70;0.70;;;23.80;59.50;;;;;;6244209;28;20034;-68
2021/07/10 08:44:51;;;;;;;1.35;0.73;;;23.80;59.50;;;;;;6244306;28;20033;-68
2021/07/10 08:47:52;;;;;;;1.67;0.50;;;23.80;59.50;;;;;;6243713;28;20029;-68
2021/07/10 08:50:53;;;;;;;1.17;0.50;;;23.80;59.50;;;;;;6244284;28;20044;-68
2021/07/10 08:53:54;;;;;;;0.63;0.55;;;23.80;59.50;;;;;;6220330;28;20076;-68
2021/07/10 08:56:55;;;;;;;0.60;0.43;;;23.80;59.50;;;;;;6205483;28;20476;-68
2021/07/10 08:59:55;;;;;;;1.00;0.68;;;23.80;59.50;;;;;;6243599;28;20024;-67
2021/07/10 09:02:57;;;;;;;0.73;0.50;;;23.80;59.40;;;;;;6243589;28;20032;-67
2021/07/10 09:05:58;;;;;;;0.57;0.57;;;23.80;59.50;;;;;;6244080;28;20022;-68
2021/07/10 09:09:00;;;;;;;0.50;0.50;;;23.80;59.50;;;;;;6243430;28;20820;-67
2021/07/10 09:12:01;;;;;;;1.13;0.70;;;23.80;59.50;;;;;;6243356;28;20465;-68
2021/07/10 09:15:19;;;;;;;0.50;0.50;;;23.80;59.50;;;;;;6243506;28;20408;-68
2021/07/10 09:18:19;;;;;;;0.50;0.50;;;23.80;59.50;;;;;;6243595;28;20500;-68
2021/07/10 09:21:35;;;;;;;0.50;0.50;;;23.80;59.50;;;;;;6243633;28;20083;-68
2021/07/10 09:24:37;;;;;;;0.50;0.50;;;23.80;59.50;;;;;;6243410;28;20029;-68
2021/07/10 09:27:49;;;;;;;0.57;0.55;;;23.80;59.50;;;;;;6242669;28;20447;-68
2021/07/10 09:30:50;;;;;;;0.40;0.40;;;23.80;59.50;;;;;;6243490;28;20044;-68
2021/07/10 09:34:10;;;;;;;0.50;0.50;;;23.80;59.40;;;;;;6242907;28;20033;-68
2021/07/10 09:37:13;;;;;;;0.80;0.60;;;23.80;59.50;;;;;;6242765;28;20520;-68
2021/07/10 09:40:14;;;;;;;4.60;0.80;;;23.80;59.50;;;;;;6233263;28;20429;-68
2021/07/10 09:43:26;;;;;;;0.70;0.60;;;23.80;59.50;;;;;;6218383;28;20017;-68
2021/07/10 09:46:27;;;;;;;2.70;0.93;;;23.80;59.50;;;;;;6228034;28;20063;-68
2021/07/10 09:49:31;;;;;;;1.58;0.60;;;23.80;59.50;;;;;;6241104;28;20044;-68
2021/07/10 09:52:35;;;;;;;1.70;0.88;;;23.80;59.50;;;;;;6224494;28;20512;-68
2021/07/10 09:55:36;;;;;;;1.00;0.60;;;23.80;59.50;;;;;;6224686;28;20179;-68
2021/07/10 09:58:36;;;;;;;2.22;0.90;;;23.80;59.50;;;;;;6230636;28;20071;-67
2021/07/10 10:01:37;;;;;;;1.80;0.77;;;23.80;59.60;;;;;;6239319;28;20049;-67
2021/07/10 10:04:38;;;;;;;1.20;0.80;;;23.80;59.60;;;;;;6232507;28;20029;-68
2021/07/10 10:07:50;;;;;;;0.90;0.70;;;23.80;59.60;;;;;;6235213;28;20029;-68
2021/07/10 10:10:53;;;;;;;2.47;0.65;;;23.90;59.60;;;;;;6215454;28;20439;-67
2021/07/10 10:14:07;;;;;;;1.17;0.80;;;23.80;59.60;;;;;;6233470;28;20488;-68
2021/07/10 10:17:07;;;;;;;3.00;0.60;;;23.80;59.60;;;;;;6238111;28;20037;-68
2021/07/10 10:20:08;;;;;;;0.80;0.80;;;23.80;59.60;;;;;;6218296;28;20038;-68
2021/07/10 10:23:10;;;;;;;3.20;0.80;;;23.80;59.60;;;;;;6224974;28;20550;-68
2021/07/10 10:26:10;;;;;;;1.85;0.85;;;23.90;59.70;;;;;;6190293;28;20334;-68
2021/07/10 10:29:13;;;;;;;1.05;0.70;;;23.90;59.70;;;;;;6225197;28;20053;-68
2021/07/10 10:32:13;;;;;;;1.90;0.70;;;23.90;59.60;;;;;;6227113;28;20025;-68
2021/07/10 10:35:16;;;;;;;1.80;0.70;;;23.90;59.70;;;;;;6226376;28;20161;-68
2021/07/10 10:38:17;;;;;;;0.85;0.65;;;23.90;59.70;;;;;;6207629;28;20536;-68
2021/07/10 10:41:22;;;;;;;0.75;0.75;;;24.00;59.80;;;;;;6239977;28;20033;-68
2021/07/10 10:44:24;;;;;;;4.03;0.90;;;24.00;59.60;;;;;;6233660;28;20129;-68
2021/07/10 10:47:25;;;;;;;1.00;0.60;;;24.00;59.70;;;;;;6239373;28;20320;-67
2021/07/10 10:50:34;;;;;;;1.08;0.60;;;24.00;59.70;;;;;;6238982;28;20095;-69
2021/07/10 10:53:34;;;;;;;5.07;0.70;;;24.00;59.70;;;;;;6227015;28;20049;-68
2021/07/10 10:56:37;;;;;;;2.50;0.80;;;24.00;59.70;;;;;;6238264;28;20086;-68
2021/07/10 10:59:40;;;;;;;0.77;0.77;;;24.00;59.70;;;;;;6234022;28;20388;-69
2021/07/10 11:02:53;;;;;;;1.00;0.90;;;24.00;60.00;;;;;;6238901;28;20029;-69
2021/07/10 11:05:57;;;;;;;0.95;0.60;;;24.00;59.60;;;;;;6208043;28;20506;-69
2021/07/10 11:08:58;;;;;;;2.78;0.73;;;24.00;59.70;;;;;;6230049;28;20226;-69
2021/07/10 11:11:59;;;;;;;1.40;0.63;;;24.00;59.90;;;;;;6236585;28;20033;-68
2021/07/10 11:15:25;;;;;;;1.73;1.17;;;24.00;60.00;;;;;;6234178;28;20120;-69
2021/07/10 11:18:27;;;;;;;1.35;0.90;;;24.00;59.90;;;;;;6238694;28;20029;-68
2021/07/10 11:21:31;;;;;;;1.40;0.65;;;24.00;59.90;;;;;;6235064;28;20079;-68
2021/07/10 11:24:45;;;;;;;1.42;0.90;;;24.00;59.80;;;;;;6233574;28;20562;-68
2021/07/10 11:28:09;;;;;;;1.80;0.88;;;24.00;59.80;;;;;;6228661;28;20061;-68
2021/07/10 11:31:10;;;;;;;1.70;0.88;;;24.00;59.70;;;;;;6228506;28;20033;-70
2021/07/10 11:34:17;;;;;;;1.30;0.85;;;24.00;59.70;;;;;;6223494;28;20033;-68
2021/07/10 11:37:21;;;;;;;0.98;0.70;;;24.10;59.70;;;;;;6232746;28;20029;-68
2021/07/10 11:40:36;;;;;;;1.35;0.75;;;24.00;59.70;;;;;;6234942;28;20045;-68
2021/07/10 11:43:37;;;;;;;6.47;1.00;;;24.00;59.60;;;;;;6235941;28;20045;-68
2021/07/10 11:46:56;;;;;;;1.00;0.80;;;24.00;59.60;;;;;;6228027;28;20642;-68
2021/07/10 11:49:59;;;;;;;1.25;0.90;;;24.00;59.60;;;;;;6233914;28;20080;-68
2021/07/10 11:52:59;;;;;;;1.38;1.00;;;24.00;59.60;;;;;;6229470;28;20073;-69
2021/07/10 11:56:00;;;;;;;0.85;0.70;;;24.00;59.60;;;;;;6222959;28;20049;-68
2021/07/10 11:59:13;;;;;;;1.10;0.70;;;24.00;59.60;;;;;;6238188;28;20026;-68
2021/07/10 12:02:26;;;;;;;0.75;0.70;;;24.00;59.50;;;;;;6238444;28;20112;-69
2021/07/10 12:05:27;;;;;;;1.30;0.82;;;24.00;59.50;;;;;;6234191;28;20029;-69
2021/07/10 12:08:29;;;;;;;0.77;0.70;;;24.00;59.50;;;;;;6237330;28;20049;-68
2021/07/10 12:11:30;;;;;;;0.63;0.60;;;24.00;59.50;;;;;;6233675;28;20022;-68
2021/07/10 12:14:30;;;;;;;1.92;1.00;;;24.00;59.50;;;;;;6242748;28;20471;-68
2021/07/10 12:17:31;;;;;;;1.02;0.80;;;24.00;59.50;;;;;;6238812;28;20519;-69
2021/07/10 12:20:33;;;;;;;1.23;0.77;;;24.00;59.50;;;;;;6234938;28;20043;-68
2021/07/10 12:23:46;;;;;;;1.67;0.80;;;24.00;59.40;;;;;;6242870;28;20455;-69
2021/07/10 12:26:47;;;;;;;1.63;0.93;;;24.10;59.60;;;;;;6241592;28;20668;-68
2021/07/10 12:29:55;;;;;;;3.40;0.70;;;24.10;59.60;;;;;;6242732;28;20095;-68
2021/07/10 12:32:55;;;;;;;1.35;0.80;;;24.10;59.60;;;;;;6237333;28;20096;-69
2021/07/10 12:36:05;;;;;;;1.00;0.90;;;24.10;59.60;;;;;;6237646;28;20026;-69
2021/07/10 12:39:15;;;;;;;1.00;0.90;;;24.10;59.60;;;;;;6242910;28;20030;-68
2021/07/10 12:42:16;;;;;;;1.42;1.00;;;24.10;59.60;;;;;;6237457;28;20360;-69
2021/07/10 12:45:17;;;;;;;1.23;0.77;;;24.10;59.60;;;;;;6240988;28;20034;-69
2021/07/10 12:48:18;;;;;;;1.23;1.00;;;24.10;59.60;;;;;;6238337;28;20503;-68
2021/07/10 12:51:19;;;;;;;1.33;1.00;;;24.10;59.70;;;;;;6229541;28;20029;-68
2021/07/10 12:54:30;;;;;;;0.93;0.80;;;24.10;59.70;;;;;;6211598;28;20041;-68
2021/07/10 12:57:38;;;;;;;5.50;1.02;;;24.10;59.70;;;;;;6235093;28;20036;-68
2021/07/10 13:00:39;;;;;;;1.02;0.93;;;24.10;59.70;;;;;;6240989;28;20112;-68
2021/07/10 13:03:49;;;;;;;4.43;1.00;;;24.10;59.70;;;;;;6197805;28;20022;-68
2021/07/10 13:06:49;;;;;;;1.98;1.25;;;24.10;59.70;;;;;;6222097;28;20703;-68
2021/07/10 13:09:49;;;;;;;2.17;1.00;;;24.10;59.70;;;;;;6241612;28;20069;-68
2021/07/10 13:12:53;;;;;;;0.88;0.80;;;24.10;59.70;;;;;;6240191;28;20075;-68
2021/07/10 13:15:56;;;;;;;1.02;0.75;;;24.10;59.70;;;;;;6241343;28;20527;-69
2021/07/10 13:18:59;;;;;;;1.33;0.95;;;24.10;59.70;;;;;;6226578;28;20026;-69
2021/07/10 13:21:59;;;;;;;1.17;0.80;;;24.10;59.70;;;;;;6228432;28;20400;-68
2021/07/10 13:25:11;;;;;;;2.33;1.00;;;24.10;59.70;;;;;;6239821;28;20060;-68
2021/07/10 13:28:34;;;;;;;1.58;0.90;;;24.10;59.70;;;;;;6236937;28;20293;-68
2021/07/10 13:31:37;;;;;;;1.48;0.85;;;24.10;59.70;;;;;;6240796;28;20403;-69
2021/07/10 13:34:40;;;;;;;3.15;1.08;;;24.10;59.70;;;;;;6235842;28;20053;-68
2021/07/10 13:37:40;;;;;;;0.90;0.80;;;24.10;59.70;;;;;;6237006;28;20384;-68
2021/07/10 13:40:41;;;;;;;1.60;0.82;;;24.10;59.70;;;;;;6241655;28;20028;-69
2021/07/10 13:44:08;;;;;;;0.80;0.70;;;24.10;59.70;;;;;;6234294;28;20033;-68
2021/07/10 13:47:20;;;;;;;1.70;0.80;;;24.10;59.70;;;;;;6224445;28;20035;-68
2021/07/10 13:50:20;;;;;;;0.93;0.77;;;24.10;59.70;;;;;;6238108;28;20040;-68
2021/07/10 13:53:21;;;;;;;1.30;0.88;;;24.10;59.90;;;;;;6236224;28;20350;-69
2021/07/10 13:56:21;;;;;;;2.88;0.70;;;24.10;59.70;;;;;;6240327;28;20026;-69
2021/07/10 13:59:22;;;;;;;2.33;0.90;;;24.10;60.40;;;;;;6236086;28;20013;-69
2021/07/10 14:02:24;;;;;;;0.85;0.65;;;24.20;59.70;;;;;;6240528;28;20021;-69
2021/07/10 14:05:30;;;;;;;1.95;0.90;;;24.20;59.70;;;;;;6240195;28;20040;-68
2021/07/10 14:08:31;;;;;;;1.90;0.98;;;24.20;59.60;;;;;;6236782;28;20037;-68
2021/07/10 14:11:32;;;;;;;4.38;1.00;;;24.20;59.70;;;;;;6239717;28;20420;-68
2021/07/10 14:14:32;;;;;;;1.17;0.90;;;24.20;59.70;;;;;;6235415;28;20105;-68
2021/07/10 14:17:33;;;;;;;11.40;1.10;;;24.20;59.80;;;;;;6240708;28;20060;-69
2021/07/10 14:20:34;;;;;;;1.08;0.65;;;24.20;60.00;;;;;;6233031;28;20175;-69
2021/07/10 14:23:34;;;;;;;5.43;0.93;;;24.20;59.80;;;;;;6239031;28;20052;-68
2021/07/10 14:26:35;;;;;;;1.48;0.68;;;24.20;59.80;;;;;;6226115;28;20037;-68
2021/07/10 14:29:35;;;;;;;3.05;1.10;;;24.10;59.70;;;;;;6239132;28;20115;-69
2021/07/10 14:32:37;;;;;;;3.75;1.10;;;24.20;59.80;;;;;;6239777;28;20095;-69
2021/07/10 14:35:38;;;;;;;4.95;0.77;;;24.20;59.80;;;;;;6235387;28;20037;-68
2021/07/10 14:38:39;;;;;;;4.95;1.65;;;24.10;59.70;;;;;;6234590;28;20500;-69
2021/07/10 14:41:39;;;;;;;14.35;1.15;;;24.10;59.70;;;;;;6240045;28;20030;-69
2021/07/10 14:44:40;;;;;;;4.80;1.40;;;24.10;61.00;;;;;;6235165;28;20025;-70
2021/07/10 14:47:42;;;;;;;6.82;0.98;;;24.20;60.60;;;;;;6239825;28;20408;-69
2021/07/10 14:50:42;;;;;;;4.43;1.15;;;24.20;60.60;;;;;;6234434;28;20025;-70
2021/07/10 14:53:43;;;;;;;3.72;0.95;;;24.20;60.40;;;;;;6223229;28;20030;-69
2021/07/10 14:56:43;;;;;;;8.60;1.10;;;24.20;60.30;;;;;;6239267;28;20124;-69
2021/07/10 14:59:44;;;;;;;8.38;1.67;;;24.20;60.20;;;;;;6235953;28;20053;-70
2021/07/10 15:02:45;;;;;;;10.60;1.20;;;24.20;60.20;;;;;;6238706;28;20036;-69
2021/07/10 15:05:46;;;;;;;6.82;1.42;;;24.20;60.20;;;;;;6209054;28;20156;-70
2021/07/10 15:08:46;;;;;;;4.45;0.98;;;24.20;60.10;;;;;;6208912;28;20060;-70
2021/07/10 15:11:47;;;;;;;8.57;1.60;;;24.20;60.00;;;;;;6235668;28;20022;-69
2021/07/10 15:14:48;;;;;;;8.45;1.50;;;24.20;60.00;;;;;;6234512;28;20017;-69
2021/07/10 15:17:49;;;;;;;5.50;1.02;;;24.20;60.10;;;;;;6239456;28;20029;-69
2021/07/10 15:20:50;;;;;;;6.93;1.48;;;24.10;60.00;;;;;;6230173;28;20034;-69
2021/07/10 15:23:50;;;;;;;5.03;1.35;;;24.10;60.00;;;;;;6238704;28;20052;-70
2021/07/10 15:26:51;;;;;;;9.35;1.35;;;24.10;60.00;;;;;;6234397;28;20308;-70
2021/07/10 15:29:51;;;;;;;6.13;1.08;;;24.20;60.50;;;;;;6235766;28;20081;-70
2021/07/10 15:32:54;;;;;;;4.85;1.20;;;24.20;60.40;;;;;;6238824;28;20022;-70
2021/07/10 15:35:55;;;;;;;3.95;0.90;;;24.20;60.30;;;;;;6233497;28;20090;-69
2021/07/10 15:38:55;;;;;;;2.97;1.10;;;24.20;60.20;;;;;;6220938;28;20017;-69
2021/07/10 15:41:56;;;;;;;2.47;1.10;;;24.20;60.10;;;;;;6235305;28;20036;-70
2021/07/10 15:44:57;;;;;;;2.85;1.00;;;24.20;60.10;;;;;;6230541;28;20223;-70